sensor_id;sensor_type;location;lat;lon;timestamp;P1;durP1;ratioP1;P2;durP2;ratioP2
36817;SDS011;22761;51.542;16.450;2023-07-28T00:00:47;4.40;;;1.90;;
36817;SDS011;22761;51.542;16.450;2023-07-28T00:03:34;1.70;;;1.40;;
36817;SDS011;22761;51.542;16.450;2023-07-28T00:06:00;2.20;;;1.50;;
36817;SDS011;22761;51.542;16.450;2023-07-28T00:08:27;2.50;;;1.70;;
36817;SDS011;22761;51.542;16.450;2023-07-28T00:10:54;3.80;;;1.80;;
36817;SDS011;22761;51.542;16.450;2023-07-28T00:13:21;2.30;;;1.60;;
36817;SDS011;22761;51.542;16.450;2023-07-28T00:15:48;2.40;;;1.50;;
36817;SDS011;22761;51.542;16.450;2023-07-28T00:18:15;2.90;;;1.70;;
36817;SDS011;22761;51.542;16.450;2023-07-28T00:20:42;3.00;;;2.00;;
36817;SDS011;22761;51.542;16.450;2023-07-28T00:23:09;1.90;;;1.40;;
36817;SDS011;22761;51.542;16.450;2023-07-28T00:25:36;4.30;;;1.70;;
36817;SDS011;22761;51.542;16.450;2023-07-28T00:28:03;3.10;;;1.80;;
36817;SDS011;22761;51.542;16.450;2023-07-28T00:30:31;3.60;;;1.70;;
36817;SDS011;22761;51.542;16.450;2023-07-28T00:32:58;5.50;;;1.60;;
36817;SDS011;22761;51.542;16.450;2023-07-28T00:35:25;3.40;;;1.90;;
36817;SDS011;22761;51.542;16.450;2023-07-28T00:37:52;5.00;;;1.90;;
36817;SDS011;22761;51.542;16.450;2023-07-28T00:40:19;2.00;;;1.40;;
36817;SDS011;22761;51.542;16.450;2023-07-28T00:42:46;2.20;;;1.60;;
36817;SDS011;22761;51.542;16.450;2023-07-28T00:45:13;4.40;;;2.10;;
36817;SDS011;22761;51.542;16.450;2023-07-28T00:47:40;4.20;;;1.80;;
36817;SDS011;22761;51.542;16.450;2023-07-28T00:50:08;4.10;;;1.50;;
36817;SDS011;22761;51.542;16.450;2023-07-28T00:52:39;2.60;;;1.30;;
36817;SDS011;22761;51.542;16.450;2023-07-28T00:55:06;4.10;;;1.60;;
36817;SDS011;22761;51.542;16.450;2023-07-28T00:57:33;3.30;;;2.30;;
36817;SDS011;22761;51.542;16.450;2023-07-28T01:00:01;2.00;;;1.40;;
36817;SDS011;22761;51.542;16.450;2023-07-28T01:02:28;5.00;;;1.80;;
36817;SDS011;22761;51.542;16.450;2023-07-28T01:04:56;2.40;;;1.30;;
36817;SDS011;22761;51.542;16.450;2023-07-28T01:07:30;1.70;;;1.40;;
36817;SDS011;22761;51.542;16.450;2023-07-28T01:12:53;4.50;;;2.20;;
36817;SDS011;22761;51.542;16.450;2023-07-28T01:15:20;3.60;;;1.40;;
36817;SDS011;22761;51.542;16.450;2023-07-28T01:17:47;4.00;;;1.50;;
36817;SDS011;22761;51.542;16.450;2023-07-28T01:20:14;3.50;;;1.40;;
36817;SDS011;22761;51.542;16.450;2023-07-28T01:28:34;2.00;;;1.40;;
36817;SDS011;22761;51.542;16.450;2023-07-28T01:31:02;2.10;;;1.40;;
36817;SDS011;22761;51.542;16.450;2023-07-28T01:33:30;5.50;;;1.50;;
36817;SDS011;22761;51.542;16.450;2023-07-28T01:35:57;4.00;;;1.70;;
36817;SDS011;22761;51.542;16.450;2023-07-28T01:38:28;3.10;;;1.50;;
36817;SDS011;22761;51.542;16.450;2023-07-28T01:40:55;4.00;;;1.40;;
36817;SDS011;22761;51.542;16.450;2023-07-28T01:43:22;2.80;;;1.40;;
36817;SDS011;22761;51.542;16.450;2023-07-28T01:45:49;3.50;;;1.30;;
36817;SDS011;22761;51.542;16.450;2023-07-28T01:48:16;4.90;;;1.40;;
36817;SDS011;22761;51.542;16.450;2023-07-28T01:50:43;3.30;;;1.30;;
36817;SDS011;22761;51.542;16.450;2023-07-28T01:53:10;3.50;;;1.10;;
36817;SDS011;22761;51.542;16.450;2023-07-28T01:55:37;3.50;;;1.30;;
36817;SDS011;22761;51.542;16.450;2023-07-28T01:58:04;3.20;;;1.40;;
36817;SDS011;22761;51.542;16.450;2023-07-28T02:00:31;5.90;;;1.30;;
36817;SDS011;22761;51.542;16.450;2023-07-28T02:02:58;2.30;;;1.00;;
36817;SDS011;22761;51.542;16.450;2023-07-28T02:05:29;3.10;;;1.70;;
36817;SDS011;22761;51.542;16.450;2023-07-28T02:07:56;4.20;;;1.20;;
36817;SDS011;22761;51.542;16.450;2023-07-28T02:10:23;4.70;;;1.20;;
36817;SDS011;22761;51.542;16.450;2023-07-28T02:12:51;3.00;;;1.10;;
36817;SDS011;22761;51.542;16.450;2023-07-28T02:15:18;3.90;;;1.20;;
36817;SDS011;22761;51.542;16.450;2023-07-28T02:17:45;4.80;;;1.10;;
36817;SDS011;22761;51.542;16.450;2023-07-28T02:20:12;4.00;;;1.20;;
36817;SDS011;22761;51.542;16.450;2023-07-28T02:22:42;3.40;;;1.10;;
36817;SDS011;22761;51.542;16.450;2023-07-28T02:25:10;1.90;;;1.10;;
36817;SDS011;22761;51.542;16.450;2023-07-28T02:27:38;4.30;;;1.10;;
36817;SDS011;22761;51.542;16.450;2023-07-28T02:30:05;2.80;;;1.20;;
36817;SDS011;22761;51.542;16.450;2023-07-28T02:32:33;3.60;;;1.10;;
36817;SDS011;22761;51.542;16.450;2023-07-28T02:35:00;3.30;;;1.50;;
36817;SDS011;22761;51.542;16.450;2023-07-28T02:37:27;5.90;;;1.20;;
36817;SDS011;22761;51.542;16.450;2023-07-28T02:39:54;3.00;;;1.00;;
36817;SDS011;22761;51.542;16.450;2023-07-28T02:42:21;3.40;;;1.20;;
36817;SDS011;22761;51.542;16.450;2023-07-28T02:44:50;5.60;;;0.90;;
36817;SDS011;22761;51.542;16.450;2023-07-28T02:47:17;2.20;;;0.70;;
36817;SDS011;22761;51.542;16.450;2023-07-28T02:49:44;5.60;;;1.50;;
36817;SDS011;22761;51.542;16.450;2023-07-28T02:52:12;6.50;;;1.10;;
36817;SDS011;22761;51.542;16.450;2023-07-28T02:54:39;7.00;;;1.00;;
36817;SDS011;22761;51.542;16.450;2023-07-28T02:57:07;6.90;;;1.30;;
36817;SDS011;22761;51.542;16.450;2023-07-28T02:59:35;4.20;;;1.20;;
36817;SDS011;22761;51.542;16.450;2023-07-28T03:02:02;6.30;;;1.00;;
36817;SDS011;22761;51.542;16.450;2023-07-28T03:04:30;5.10;;;0.80;;
36817;SDS011;22761;51.542;16.450;2023-07-28T03:07:23;9.00;;;1.50;;
36817;SDS011;22761;51.542;16.450;2023-07-28T03:09:55;3.30;;;1.30;;
36817;SDS011;22761;51.542;16.450;2023-07-28T03:12:22;4.10;;;1.00;;
36817;SDS011;22761;51.542;16.450;2023-07-28T03:14:49;7.80;;;1.30;;
36817;SDS011;22761;51.542;16.450;2023-07-28T03:17:16;3.90;;;1.00;;
36817;SDS011;22761;51.542;16.450;2023-07-28T03:19:43;2.30;;;1.10;;
36817;SDS011;22761;51.542;16.450;2023-07-28T03:22:10;3.20;;;1.10;;
36817;SDS011;22761;51.542;16.450;2023-07-28T03:24:37;6.40;;;1.00;;
36817;SDS011;22761;51.542;16.450;2023-07-28T03:27:05;7.20;;;1.40;;
36817;SDS011;22761;51.542;16.450;2023-07-28T03:29:32;4.60;;;1.20;;
36817;SDS011;22761;51.542;16.450;2023-07-28T03:31:59;5.10;;;0.90;;
36817;SDS011;22761;51.542;16.450;2023-07-28T03:34:26;4.40;;;1.30;;
36817;SDS011;22761;51.542;16.450;2023-07-28T03:36:54;7.80;;;1.60;;
36817;SDS011;22761;51.542;16.450;2023-07-28T03:39:22;4.50;;;1.30;;
36817;SDS011;22761;51.542;16.450;2023-07-28T03:41:49;4.80;;;0.90;;
36817;SDS011;22761;51.542;16.450;2023-07-28T03:44:16;6.30;;;1.40;;
36817;SDS011;22761;51.542;16.450;2023-07-28T03:46:43;3.50;;;1.30;;
36817;SDS011;22761;51.542;16.450;2023-07-28T03:49:10;6.30;;;1.30;;
36817;SDS011;22761;51.542;16.450;2023-07-28T03:51:37;4.70;;;1.40;;
36817;SDS011;22761;51.542;16.450;2023-07-28T03:54:04;6.20;;;1.10;;
36817;SDS011;22761;51.542;16.450;2023-07-28T03:56:31;4.80;;;1.10;;
36817;SDS011;22761;51.542;16.450;2023-07-28T03:58:58;5.90;;;1.50;;
36817;SDS011;22761;51.542;16.450;2023-07-28T04:01:25;4.90;;;1.50;;
36817;SDS011;22761;51.542;16.450;2023-07-28T04:03:53;6.70;;;1.30;;
36817;SDS011;22761;51.542;16.450;2023-07-28T04:06:19;7.40;;;1.40;;
36817;SDS011;22761;51.542;16.450;2023-07-28T04:09:06;5.30;;;1.10;;
36817;SDS011;22761;51.542;16.450;2023-07-28T04:11:33;4.90;;;1.40;;
36817;SDS011;22761;51.542;16.450;2023-07-28T04:14:01;5.50;;;1.50;;
36817;SDS011;22761;51.542;16.450;2023-07-28T04:16:28;7.90;;;1.50;;
36817;SDS011;22761;51.542;16.450;2023-07-28T04:18:55;2.50;;;1.20;;
36817;SDS011;22761;51.542;16.450;2023-07-28T04:21:23;8.70;;;1.40;;
36817;SDS011;22761;51.542;16.450;2023-07-28T04:23:50;5.10;;;1.20;;
36817;SDS011;22761;51.542;16.450;2023-07-28T04:26:17;6.00;;;1.90;;
36817;SDS011;22761;51.542;16.450;2023-07-28T04:28:45;6.70;;;1.80;;
36817;SDS011;22761;51.542;16.450;2023-07-28T04:31:12;5.20;;;1.30;;
36817;SDS011;22761;51.542;16.450;2023-07-28T04:33:50;8.00;;;1.50;;
36817;SDS011;22761;51.542;16.450;2023-07-28T04:36:17;8.40;;;1.40;;
36817;SDS011;22761;51.542;16.450;2023-07-28T04:38:44;5.60;;;1.40;;
36817;SDS011;22761;51.542;16.450;2023-07-28T04:41:11;8.10;;;1.90;;
36817;SDS011;22761;51.542;16.450;2023-07-28T04:44:05;3.50;;;1.10;;
36817;SDS011;22761;51.542;16.450;2023-07-28T04:46:33;4.90;;;1.30;;
36817;SDS011;22761;51.542;16.450;2023-07-28T04:49:03;6.70;;;1.10;;
36817;SDS011;22761;51.542;16.450;2023-07-28T04:52:02;5.10;;;1.10;;
36817;SDS011;22761;51.542;16.450;2023-07-28T04:54:40;5.30;;;1.50;;
36817;SDS011;22761;51.542;16.450;2023-07-28T04:57:07;11.30;;;1.90;;
36817;SDS011;22761;51.542;16.450;2023-07-28T04:59:36;4.40;;;1.30;;
36817;SDS011;22761;51.542;16.450;2023-07-28T05:02:03;3.80;;;1.50;;
36817;SDS011;22761;51.542;16.450;2023-07-28T05:04:30;11.10;;;1.90;;
36817;SDS011;22761;51.542;16.450;2023-07-28T05:06:57;5.80;;;1.50;;
36817;SDS011;22761;51.542;16.450;2023-07-28T05:09:24;4.20;;;1.60;;
36817;SDS011;22761;51.542;16.450;2023-07-28T05:11:51;8.20;;;1.90;;
36817;SDS011;22761;51.542;16.450;2023-07-28T05:14:18;5.80;;;2.00;;
36817;SDS011;22761;51.542;16.450;2023-07-28T05:16:45;7.40;;;1.80;;
36817;SDS011;22761;51.542;16.450;2023-07-28T05:19:34;9.90;;;2.10;;
36817;SDS011;22761;51.542;16.450;2023-07-28T05:22:01;7.00;;;2.30;;
36817;SDS011;22761;51.542;16.450;2023-07-28T05:24:35;3.30;;;1.50;;
36817;SDS011;22761;51.542;16.450;2023-07-28T05:27:03;4.90;;;1.70;;
36817;SDS011;22761;51.542;16.450;2023-07-28T05:29:30;3.20;;;1.70;;
36817;SDS011;22761;51.542;16.450;2023-07-28T05:32:01;8.40;;;2.10;;
36817;SDS011;22761;51.542;16.450;2023-07-28T05:34:33;5.80;;;1.50;;
36817;SDS011;22761;51.542;16.450;2023-07-28T05:37:00;5.10;;;1.70;;
36817;SDS011;22761;51.542;16.450;2023-07-28T05:39:29;3.70;;;1.70;;
36817;SDS011;22761;51.542;16.450;2023-07-28T05:41:56;5.30;;;1.50;;
36817;SDS011;22761;51.542;16.450;2023-07-28T05:44:23;2.10;;;1.50;;
36817;SDS011;22761;51.542;16.450;2023-07-28T05:46:50;2.50;;;1.30;;
36817;SDS011;22761;51.542;16.450;2023-07-28T05:49:18;3.70;;;2.10;;
36817;SDS011;22761;51.542;16.450;2023-07-28T05:51:45;5.20;;;1.70;;
36817;SDS011;22761;51.542;16.450;2023-07-28T05:54:13;2.70;;;1.50;;
36817;SDS011;22761;51.542;16.450;2023-07-28T05:56:43;3.60;;;1.30;;
36817;SDS011;22761;51.542;16.450;2023-07-28T05:59:10;3.60;;;1.60;;
36817;SDS011;22761;51.542;16.450;2023-07-28T06:01:37;2.10;;;1.70;;
36817;SDS011;22761;51.542;16.450;2023-07-28T06:04:22;3.70;;;1.40;;
36817;SDS011;22761;51.542;16.450;2023-07-28T06:06:55;2.40;;;1.40;;
36817;SDS011;22761;51.542;16.450;2023-07-28T06:09:22;4.20;;;1.60;;
36817;SDS011;22761;51.542;16.450;2023-07-28T06:11:49;3.70;;;1.40;;
36817;SDS011;22761;51.542;16.450;2023-07-28T06:14:17;2.10;;;1.50;;
36817;SDS011;22761;51.542;16.450;2023-07-28T06:16:43;4.10;;;1.60;;
36817;SDS011;22761;51.542;16.450;2023-07-28T06:19:11;2.70;;;1.30;;
36817;SDS011;22761;51.542;16.450;2023-07-28T06:21:39;1.80;;;1.50;;
36817;SDS011;22761;51.542;16.450;2023-07-28T06:24:06;7.30;;;1.40;;
36817;SDS011;22761;51.542;16.450;2023-07-28T06:26:33;2.60;;;1.40;;
36817;SDS011;22761;51.542;16.450;2023-07-28T06:29:00;1.80;;;1.20;;
36817;SDS011;22761;51.542;16.450;2023-07-28T06:31:27;2.50;;;1.20;;
36817;SDS011;22761;51.542;16.450;2023-07-28T06:33:55;2.50;;;1.20;;
36817;SDS011;22761;51.542;16.450;2023-07-28T06:36:22;3.90;;;1.50;;
36817;SDS011;22761;51.542;16.450;2023-07-28T06:38:49;3.60;;;1.40;;
36817;SDS011;22761;51.542;16.450;2023-07-28T06:41:16;2.00;;;1.10;;
36817;SDS011;22761;51.542;16.450;2023-07-28T06:43:45;2.20;;;1.40;;
36817;SDS011;22761;51.542;16.450;2023-07-28T06:46:13;1.20;;;1.00;;
36817;SDS011;22761;51.542;16.450;2023-07-28T06:48:40;3.60;;;1.40;;
36817;SDS011;22761;51.542;16.450;2023-07-28T06:51:08;4.80;;;1.20;;
36817;SDS011;22761;51.542;16.450;2023-07-28T06:53:34;4.50;;;1.00;;
36817;SDS011;22761;51.542;16.450;2023-07-28T06:56:01;4.50;;;1.30;;
36817;SDS011;22761;51.542;16.450;2023-07-28T06:58:28;1.30;;;1.20;;
36817;SDS011;22761;51.542;16.450;2023-07-28T07:00:55;2.70;;;1.00;;
36817;SDS011;22761;51.542;16.450;2023-07-28T07:03:23;0.90;;;0.80;;
36817;SDS011;22761;51.542;16.450;2023-07-28T07:05:50;3.80;;;1.20;;
36817;SDS011;22761;51.542;16.450;2023-07-28T07:08:17;3.10;;;1.00;;
36817;SDS011;22761;51.542;16.450;2023-07-28T07:10:48;3.20;;;1.10;;
36817;SDS011;22761;51.542;16.450;2023-07-28T07:13:16;1.90;;;1.20;;
36817;SDS011;22761;51.542;16.450;2023-07-28T07:15:44;6.20;;;1.10;;
36817;SDS011;22761;51.542;16.450;2023-07-28T07:18:12;2.60;;;0.90;;
36817;SDS011;22761;51.542;16.450;2023-07-28T07:20:39;1.70;;;0.90;;
36817;SDS011;22761;51.542;16.450;2023-07-28T07:23:06;4.20;;;1.00;;
36817;SDS011;22761;51.542;16.450;2023-07-28T07:25:34;1.70;;;0.90;;
36817;SDS011;22761;51.542;16.450;2023-07-28T07:28:03;2.00;;;0.90;;
36817;SDS011;22761;51.542;16.450;2023-07-28T07:30:33;1.60;;;1.00;;
36817;SDS011;22761;51.542;16.450;2023-07-28T07:33:00;4.10;;;1.20;;
36817;SDS011;22761;51.542;16.450;2023-07-28T07:35:27;1.70;;;0.90;;
36817;SDS011;22761;51.542;16.450;2023-07-28T07:37:54;2.00;;;1.00;;
36817;SDS011;22761;51.542;16.450;2023-07-28T07:40:21;1.80;;;0.80;;
36817;SDS011;22761;51.542;16.450;2023-07-28T07:42:52;3.60;;;1.00;;
36817;SDS011;22761;51.542;16.450;2023-07-28T07:45:19;1.00;;;0.90;;
36817;SDS011;22761;51.542;16.450;2023-07-28T07:47:46;2.40;;;1.00;;
36817;SDS011;22761;51.542;16.450;2023-07-28T07:50:13;1.30;;;0.80;;
36817;SDS011;22761;51.542;16.450;2023-07-28T07:52:40;1.00;;;0.90;;
36817;SDS011;22761;51.542;16.450;2023-07-28T07:55:09;1.00;;;0.90;;
36817;SDS011;22761;51.542;16.450;2023-07-28T07:57:37;1.90;;;1.00;;
36817;SDS011;22761;51.542;16.450;2023-07-28T08:00:04;1.30;;;0.90;;
36817;SDS011;22761;51.542;16.450;2023-07-28T08:02:38;2.60;;;1.00;;
36817;SDS011;22761;51.542;16.450;2023-07-28T08:05:06;1.40;;;0.90;;
36817;SDS011;22761;51.542;16.450;2023-07-28T08:07:34;1.60;;;0.90;;
36817;SDS011;22761;51.542;16.450;2023-07-28T08:10:01;0.70;;;0.70;;
36817;SDS011;22761;51.542;16.450;2023-07-28T08:12:28;1.00;;;0.80;;
36817;SDS011;22761;51.542;16.450;2023-07-28T08:14:55;2.10;;;0.70;;
36817;SDS011;22761;51.542;16.450;2023-07-28T08:17:23;1.50;;;0.80;;
36817;SDS011;22761;51.542;16.450;2023-07-28T08:19:50;0.90;;;0.80;;
36817;SDS011;22761;51.542;16.450;2023-07-28T08:22:17;0.80;;;0.70;;
36817;SDS011;22761;51.542;16.450;2023-07-28T08:24:44;3.00;;;0.90;;
36817;SDS011;22761;51.542;16.450;2023-07-28T08:27:11;1.60;;;0.90;;
36817;SDS011;22761;51.542;16.450;2023-07-28T08:29:38;1.80;;;0.80;;
36817;SDS011;22761;51.542;16.450;2023-07-28T08:32:05;1.60;;;0.90;;
36817;SDS011;22761;51.542;16.450;2023-07-28T08:34:33;1.40;;;1.00;;
36817;SDS011;22761;51.542;16.450;2023-07-28T08:37:00;1.50;;;1.00;;
36817;SDS011;22761;51.542;16.450;2023-07-28T08:39:27;4.80;;;1.20;;
36817;SDS011;22761;51.542;16.450;2023-07-28T08:41:57;3.30;;;0.90;;
36817;SDS011;22761;51.542;16.450;2023-07-28T08:44:34;1.50;;;1.00;;
36817;SDS011;22761;51.542;16.450;2023-07-28T08:47:04;2.70;;;1.10;;
36817;SDS011;22761;51.542;16.450;2023-07-28T08:49:32;2.10;;;1.10;;
36817;SDS011;22761;51.542;16.450;2023-07-28T08:52:01;1.60;;;1.00;;
36817;SDS011;22761;51.542;16.450;2023-07-28T08:54:30;1.70;;;0.90;;
36817;SDS011;22761;51.542;16.450;2023-07-28T08:56:58;1.00;;;0.80;;
36817;SDS011;22761;51.542;16.450;2023-07-28T08:59:25;2.10;;;1.00;;
36817;SDS011;22761;51.542;16.450;2023-07-28T09:01:54;3.00;;;1.10;;
36817;SDS011;22761;51.542;16.450;2023-07-28T09:04:23;1.40;;;1.00;;
36817;SDS011;22761;51.542;16.450;2023-07-28T09:06:50;2.90;;;1.20;;
36817;SDS011;22761;51.542;16.450;2023-07-28T09:09:19;0.90;;;0.90;;
36817;SDS011;22761;51.542;16.450;2023-07-28T09:11:52;1.20;;;0.90;;
36817;SDS011;22761;51.542;16.450;2023-07-28T09:14:21;1.50;;;1.20;;
36817;SDS011;22761;51.542;16.450;2023-07-28T09:16:51;3.20;;;1.10;;
36817;SDS011;22761;51.542;16.450;2023-07-28T09:19:19;0.80;;;0.80;;
36817;SDS011;22761;51.542;16.450;2023-07-28T09:21:57;1.80;;;1.20;;
36817;SDS011;22761;51.542;16.450;2023-07-28T09:24:31;4.30;;;1.10;;
36817;SDS011;22761;51.542;16.450;2023-07-28T09:26:59;2.20;;;0.90;;
36817;SDS011;22761;51.542;16.450;2023-07-28T09:29:27;3.50;;;0.80;;
36817;SDS011;22761;51.542;16.450;2023-07-28T09:32:02;0.70;;;0.70;;
36817;SDS011;22761;51.542;16.450;2023-07-28T09:34:30;1.20;;;0.90;;
36817;SDS011;22761;51.542;16.450;2023-07-28T09:36:59;2.40;;;0.70;;
36817;SDS011;22761;51.542;16.450;2023-07-28T09:39:27;0.50;;;0.50;;
36817;SDS011;22761;51.542;16.450;2023-07-28T09:41:54;0.60;;;0.60;;
36817;SDS011;22761;51.542;16.450;2023-07-28T09:44:26;1.20;;;0.70;;
36817;SDS011;22761;51.542;16.450;2023-07-28T09:46:54;1.80;;;0.70;;
36817;SDS011;22761;51.542;16.450;2023-07-28T09:52:04;0.50;;;0.50;;
36817;SDS011;22761;51.542;16.450;2023-07-28T09:54:34;0.60;;;0.60;;
36817;SDS011;22761;51.542;16.450;2023-07-28T09:57:07;0.90;;;0.60;;
36817;SDS011;22761;51.542;16.450;2023-07-28T09:59:40;0.90;;;0.50;;
36817;SDS011;22761;51.542;16.450;2023-07-28T10:02:08;5.30;;;0.60;;
36817;SDS011;22761;51.542;16.450;2023-07-28T10:04:35;1.00;;;0.70;;
36817;SDS011;22761;51.542;16.450;2023-07-28T10:07:04;0.60;;;0.60;;
36817;SDS011;22761;51.542;16.450;2023-07-28T10:09:32;0.70;;;0.50;;
36817;SDS011;22761;51.542;16.450;2023-07-28T10:12:03;0.90;;;0.50;;
36817;SDS011;22761;51.542;16.450;2023-07-28T10:14:32;1.50;;;0.70;;
36817;SDS011;22761;51.542;16.450;2023-07-28T10:17:01;1.00;;;0.80;;
36817;SDS011;22761;51.542;16.450;2023-07-28T10:19:28;1.00;;;0.80;;
36817;SDS011;22761;51.542;16.450;2023-07-28T10:21:58;0.50;;;0.50;;
36817;SDS011;22761;51.542;16.450;2023-07-28T10:27:36;1.90;;;0.80;;
36817;SDS011;22761;51.542;16.450;2023-07-28T10:30:11;0.80;;;0.70;;
36817;SDS011;22761;51.542;16.450;2023-07-28T10:32:43;1.20;;;0.80;;
36817;SDS011;22761;51.542;16.450;2023-07-28T10:37:38;1.20;;;0.90;;
36817;SDS011;22761;51.542;16.450;2023-07-28T10:42:55;5.00;;;1.00;;
36817;SDS011;22761;51.542;16.450;2023-07-28T10:45:24;3.20;;;1.00;;
36817;SDS011;22761;51.542;16.450;2023-07-28T10:47:52;1.20;;;1.10;;
36817;SDS011;22761;51.542;16.450;2023-07-28T10:50:22;3.00;;;1.10;;
36817;SDS011;22761;51.542;16.450;2023-07-28T10:52:49;2.50;;;1.30;;
36817;SDS011;22761;51.542;16.450;2023-07-28T10:55:18;1.60;;;1.50;;
36817;SDS011;22761;51.542;16.450;2023-07-28T10:57:50;4.70;;;2.00;;
36817;SDS011;22761;51.542;16.450;2023-07-28T11:00:20;1.50;;;1.40;;
36817;SDS011;22761;51.542;16.450;2023-07-28T11:02:49;2.40;;;1.50;;
36817;SDS011;22761;51.542;16.450;2023-07-28T11:05:21;2.70;;;1.30;;
36817;SDS011;22761;51.542;16.450;2023-07-28T11:07:49;1.30;;;1.20;;
36817;SDS011;22761;51.542;16.450;2023-07-28T11:10:18;2.20;;;1.30;;
36817;SDS011;22761;51.542;16.450;2023-07-28T11:12:46;2.20;;;1.30;;
36817;SDS011;22761;51.542;16.450;2023-07-28T11:15:14;1.30;;;1.20;;
36817;SDS011;22761;51.542;16.450;2023-07-28T11:17:48;2.00;;;1.50;;
36817;SDS011;22761;51.542;16.450;2023-07-28T11:20:17;3.70;;;1.50;;
36817;SDS011;22761;51.542;16.450;2023-07-28T11:22:55;2.40;;;1.70;;
36817;SDS011;22761;51.542;16.450;2023-07-28T11:25:27;1.30;;;1.10;;
36817;SDS011;22761;51.542;16.450;2023-07-28T11:27:54;1.40;;;1.00;;
36817;SDS011;22761;51.542;16.450;2023-07-28T11:30:22;10.20;;;1.60;;
36817;SDS011;22761;51.542;16.450;2023-07-28T11:32:50;1.10;;;1.00;;
36817;SDS011;22761;51.542;16.450;2023-07-28T11:35:19;3.50;;;0.80;;
36817;SDS011;22761;51.542;16.450;2023-07-28T11:37:49;3.40;;;0.70;;
36817;SDS011;22761;51.542;16.450;2023-07-28T11:40:18;2.20;;;0.70;;
36817;SDS011;22761;51.542;16.450;2023-07-28T11:45:16;1.20;;;0.70;;
36817;SDS011;22761;51.542;16.450;2023-07-28T11:50:25;1.10;;;0.70;;
36817;SDS011;22761;51.542;16.450;2023-07-28T11:52:56;2.50;;;1.00;;
36817;SDS011;22761;51.542;16.450;2023-07-28T11:55:24;5.80;;;1.30;;
36817;SDS011;22761;51.542;16.450;2023-07-28T11:57:51;6.00;;;1.20;;
36817;SDS011;22761;51.542;16.450;2023-07-28T12:00:24;1.80;;;0.90;;
36817;SDS011;22761;51.542;16.450;2023-07-28T12:05:29;1.90;;;0.70;;
36817;SDS011;22761;51.542;16.450;2023-07-28T12:07:56;3.20;;;0.80;;
36817;SDS011;22761;51.542;16.450;2023-07-28T12:10:23;1.40;;;0.70;;
36817;SDS011;22761;51.542;16.450;2023-07-28T12:12:53;3.20;;;0.70;;
36817;SDS011;22761;51.542;16.450;2023-07-28T12:15:24;1.30;;;0.50;;
36817;SDS011;22761;51.542;16.450;2023-07-28T12:18:10;1.40;;;0.50;;
36817;SDS011;22761;51.542;16.450;2023-07-28T12:20:47;2.60;;;0.60;;
36817;SDS011;22761;51.542;16.450;2023-07-28T12:23:17;1.00;;;0.50;;
36817;SDS011;22761;51.542;16.450;2023-07-28T12:25:49;1.30;;;0.60;;
36817;SDS011;22761;51.542;16.450;2023-07-28T12:28:22;1.40;;;0.50;;
36817;SDS011;22761;51.542;16.450;2023-07-28T12:30:49;1.20;;;0.50;;
36817;SDS011;22761;51.542;16.450;2023-07-28T12:33:17;3.20;;;0.50;;
36817;SDS011;22761;51.542;16.450;2023-07-28T12:35:48;3.70;;;0.70;;
36817;SDS011;22761;51.542;16.450;2023-07-28T12:38:17;1.30;;;0.50;;
36817;SDS011;22761;51.542;16.450;2023-07-28T12:40:47;1.10;;;0.40;;
36817;SDS011;22761;51.542;16.450;2023-07-28T12:43:17;1.30;;;0.70;;
36817;SDS011;22761;51.542;16.450;2023-07-28T12:45:47;0.80;;;0.40;;
36817;SDS011;22761;51.542;16.450;2023-07-28T12:48:17;0.80;;;0.60;;
36817;SDS011;22761;51.542;16.450;2023-07-28T12:50:47;0.90;;;0.70;;
36817;SDS011;22761;51.542;16.450;2023-07-28T12:53:15;1.70;;;0.60;;
36817;SDS011;22761;51.542;16.450;2023-07-28T12:55:49;4.20;;;0.60;;
36817;SDS011;22761;51.542;16.450;2023-07-28T12:58:18;0.50;;;0.50;;
36817;SDS011;22761;51.542;16.450;2023-07-28T13:00:48;1.20;;;0.60;;
36817;SDS011;22761;51.542;16.450;2023-07-28T13:03:18;2.40;;;0.70;;
36817;SDS011;22761;51.542;16.450;2023-07-28T13:05:45;1.60;;;0.70;;
36817;SDS011;22761;51.542;16.450;2023-07-28T13:08:14;2.70;;;0.70;;
36817;SDS011;22761;51.542;16.450;2023-07-28T13:10:41;2.80;;;0.50;;
36817;SDS011;22761;51.542;16.450;2023-07-28T13:13:11;0.90;;;0.50;;
36817;SDS011;22761;51.542;16.450;2023-07-28T13:18:07;0.80;;;0.50;;
36817;SDS011;22761;51.542;16.450;2023-07-28T13:20:35;1.40;;;0.40;;
36817;SDS011;22761;51.542;16.450;2023-07-28T13:23:02;1.20;;;0.60;;
36817;SDS011;22761;51.542;16.450;2023-07-28T13:25:29;0.50;;;0.40;;
36817;SDS011;22761;51.542;16.450;2023-07-28T13:27:55;2.90;;;0.50;;
36817;SDS011;22761;51.542;16.450;2023-07-28T13:30:23;0.90;;;0.40;;
36817;SDS011;22761;51.542;16.450;2023-07-28T13:32:49;0.70;;;0.40;;
36817;SDS011;22761;51.542;16.450;2023-07-28T13:35:16;1.10;;;0.40;;
36817;SDS011;22761;51.542;16.450;2023-07-28T13:37:44;4.10;;;1.10;;
36817;SDS011;22761;51.542;16.450;2023-07-28T13:40:11;0.40;;;0.40;;
36817;SDS011;22761;51.542;16.450;2023-07-28T13:42:39;1.20;;;0.40;;
36817;SDS011;22761;51.542;16.450;2023-07-28T13:45:08;0.80;;;0.40;;
36817;SDS011;22761;51.542;16.450;2023-07-28T13:47:35;1.20;;;0.40;;
36817;SDS011;22761;51.542;16.450;2023-07-28T13:50:02;0.50;;;0.30;;
36817;SDS011;22761;51.542;16.450;2023-07-28T13:52:29;4.60;;;0.50;;
36817;SDS011;22761;51.542;16.450;2023-07-28T13:54:57;1.00;;;0.50;;
36817;SDS011;22761;51.542;16.450;2023-07-28T13:57:27;0.50;;;0.40;;
36817;SDS011;22761;51.542;16.450;2023-07-28T13:59:54;2.20;;;0.50;;
36817;SDS011;22761;51.542;16.450;2023-07-28T14:02:21;0.70;;;0.50;;
36817;SDS011;22761;51.542;16.450;2023-07-28T14:04:48;0.40;;;0.30;;
36817;SDS011;22761;51.542;16.450;2023-07-28T14:07:15;0.40;;;0.40;;
36817;SDS011;22761;51.542;16.450;2023-07-28T14:09:42;0.90;;;0.40;;
36817;SDS011;22761;51.542;16.450;2023-07-28T14:12:09;0.40;;;0.40;;
36817;SDS011;22761;51.542;16.450;2023-07-28T14:14:36;2.20;;;0.40;;
36817;SDS011;22761;51.542;16.450;2023-07-28T14:17:03;0.70;;;0.30;;
36817;SDS011;22761;51.542;16.450;2023-07-28T14:19:30;0.60;;;0.30;;
36817;SDS011;22761;51.542;16.450;2023-07-28T14:21:57;1.40;;;0.30;;
36817;SDS011;22761;51.542;16.450;2023-07-28T14:24:24;1.30;;;0.30;;
36817;SDS011;22761;51.542;16.450;2023-07-28T14:26:51;0.30;;;0.20;;
36817;SDS011;22761;51.542;16.450;2023-07-28T14:29:18;1.00;;;0.20;;
36817;SDS011;22761;51.542;16.450;2023-07-28T14:31:45;2.40;;;0.50;;
36817;SDS011;22761;51.542;16.450;2023-07-28T14:34:12;1.40;;;0.30;;
36817;SDS011;22761;51.542;16.450;2023-07-28T14:36:39;1.50;;;0.40;;
36817;SDS011;22761;51.542;16.450;2023-07-28T14:39:06;0.90;;;0.30;;
36817;SDS011;22761;51.542;16.450;2023-07-28T14:41:33;0.30;;;0.30;;
36817;SDS011;22761;51.542;16.450;2023-07-28T14:44:01;4.70;;;0.90;;
36817;SDS011;22761;51.542;16.450;2023-07-28T14:46:28;0.20;;;0.20;;
36817;SDS011;22761;51.542;16.450;2023-07-28T14:48:55;3.10;;;0.30;;
36817;SDS011;22761;51.542;16.450;2023-07-28T14:51:22;0.20;;;0.20;;
36817;SDS011;22761;51.542;16.450;2023-07-28T14:53:49;1.00;;;0.40;;
36817;SDS011;22761;51.542;16.450;2023-07-28T14:56:16;1.50;;;0.20;;
36817;SDS011;22761;51.542;16.450;2023-07-28T14:58:44;2.60;;;0.30;;
36817;SDS011;22761;51.542;16.450;2023-07-28T15:01:11;0.70;;;0.30;;
36817;SDS011;22761;51.542;16.450;2023-07-28T15:03:39;0.90;;;0.30;;
36817;SDS011;22761;51.542;16.450;2023-07-28T15:06:09;0.20;;;0.20;;
36817;SDS011;22761;51.542;16.450;2023-07-28T15:08:36;1.80;;;0.30;;
36817;SDS011;22761;51.542;16.450;2023-07-28T15:11:03;0.20;;;0.20;;